METAR Data
IDs: Format: Raw Decoded Include TAF

Data at: 1416 UTC 21 Apr 2021

KIAH 211353Z 02014KT 10SM FEW250 11/01 A3030 RMK AO2 SLP259 T01060011

KIAH 211120Z 2112/2218 02014KT P6SM FEW250
  FM212200 04007KT P6SM FEW250
  FM221100 08007KT P6SM BKN250
  FM221600 11012KT P6SM BKN040